sensor_id;sensor_type;location;lat;lon;timestamp;pressure;altitude;pressure_sealevel;temperature;humidity
9419;BME280;4748;50.802;7.132;2023-02-01T00:01:09;101465.06;;;7.64;100.00
9419;BME280;4748;50.802;7.132;2023-02-01T00:03:34;101461.59;;;7.63;100.00
9419;BME280;4748;50.802;7.132;2023-02-01T00:06:00;101460.38;;;7.66;100.00
9419;BME280;4748;50.802;7.132;2023-02-01T00:08:26;101458.56;;;7.66;100.00
9419;BME280;4748;50.802;7.132;2023-02-01T00:11:01;101461.41;;;7.65;100.00
9419;BME280;4748;50.802;7.132;2023-02-01T00:13:31;101468.53;;;7.64;100.00
9419;BME280;4748;50.802;7.132;2023-02-01T00:16:12;101462.47;;;7.56;100.00
9419;BME280;4748;50.802;7.132;2023-02-01T00:18:38;101455.03;;;7.52;100.00
9419;BME280;4748;50.802;7.132;2023-02-01T00:21:04;101450.97;;;7.41;100.00
9419;BME280;4748;50.802;7.132;2023-02-01T00:23:35;101464.81;;;7.37;100.00
9419;BME280;4748;50.802;7.132;2023-02-01T00:26:02;101465.38;;;7.32;100.00
9419;BME280;4748;50.802;7.132;2023-02-01T00:28:28;101474.34;;;7.31;100.00
9419;BME280;4748;50.802;7.132;2023-02-01T00:31:01;101463.38;;;7.26;100.00
9419;BME280;4748;50.802;7.132;2023-02-01T00:33:27;101470.88;;;7.31;100.00
9419;BME280;4748;50.802;7.132;2023-02-01T00:36:00;101477.19;;;7.30;100.00
9419;BME280;4748;50.802;7.132;2023-02-01T00:38:27;101472.88;;;7.29;100.00
9419;BME280;4748;50.802;7.132;2023-02-01T00:40:52;101472.41;;;7.25;100.00
9419;BME280;4748;50.802;7.132;2023-02-01T00:43:18;101471.38;;;7.26;100.00
9419;BME280;4748;50.802;7.132;2023-02-01T00:45:45;101464.59;;;7.24;100.00
9419;BME280;4748;50.802;7.132;2023-02-01T00:48:10;101470.56;;;7.26;100.00
9419;BME280;4748;50.802;7.132;2023-02-01T00:50:41;101464.59;;;7.24;100.00
9419;BME280;4748;50.802;7.132;2023-02-01T00:53:06;101461.94;;;7.24;100.00
9419;BME280;4748;50.802;7.132;2023-02-01T00:55:31;101468.91;;;7.25;100.00
9419;BME280;4748;50.802;7.132;2023-02-01T00:57:57;101471.19;;;7.28;100.00
9419;BME280;4748;50.802;7.132;2023-02-01T01:00:22;101470.19;;;7.29;100.00
9419;BME280;4748;50.802;7.132;2023-02-01T01:02:48;101484.50;;;7.28;100.00
9419;BME280;4748;50.802;7.132;2023-02-01T01:05:13;101472.88;;;7.29;100.00
9419;BME280;4748;50.802;7.132;2023-02-01T01:07:38;101483.81;;;7.34;100.00
9419;BME280;4748;50.802;7.132;2023-02-01T01:10:04;101477.09;;;7.38;100.00
9419;BME280;4748;50.802;7.132;2023-02-01T01:12:30;101465.47;;;7.39;100.00
9419;BME280;4748;50.802;7.132;2023-02-01T01:14:55;101463.78;;;7.38;100.00
9419;BME280;4748;50.802;7.132;2023-02-01T01:17:20;101452.16;;;7.39;100.00
9419;BME280;4748;50.802;7.132;2023-02-01T01:19:46;101450.47;;;7.38;100.00
9419;BME280;4748;50.802;7.132;2023-02-01T01:22:11;101447.81;;;7.38;100.00
9419;BME280;4748;50.802;7.132;2023-02-01T01:24:36;101436.84;;;7.41;100.00
9419;BME280;4748;50.802;7.132;2023-02-01T01:27:02;101442.31;;;7.39;100.00
9419;BME280;4748;50.802;7.132;2023-02-01T01:29:28;101441.31;;;7.40;100.00
9419;BME280;4748;50.802;7.132;2023-02-01T01:31:53;101451.59;;;7.43;100.00
9419;BME280;4748;50.802;7.132;2023-02-01T01:34:18;101462.53;;;7.34;100.00
9419;BME280;4748;50.802;7.132;2023-02-01T01:36:43;101453.13;;;7.38;100.00
9419;BME280;4748;50.802;7.132;2023-02-01T01:39:09;101468.13;;;7.39;100.00
9419;BME280;4748;50.802;7.132;2023-02-01T01:41:34;101471.16;;;7.36;100.00
9419;BME280;4748;50.802;7.132;2023-02-01T01:49:10;101489.16;;;7.34;100.00
9419;BME280;4748;50.802;7.132;2023-02-01T01:51:48;101496.97;;;7.35;100.00
9419;BME280;4748;50.802;7.132;2023-02-01T01:56:49;101494.47;;;7.34;100.00
9419;BME280;4748;50.802;7.132;2023-02-01T01:59:15;101500.81;;;7.33;100.00
9419;BME280;4748;50.802;7.132;2023-02-01T02:01:42;101497.31;;;7.32;100.00
9419;BME280;4748;50.802;7.132;2023-02-01T02:04:07;101485.81;;;7.32;100.00
9419;BME280;4748;50.802;7.132;2023-02-01T02:06:46;101466.00;;;7.34;100.00
9419;BME280;4748;50.802;7.132;2023-02-01T02:09:14;101474.53;;;7.30;100.00
9419;BME280;4748;50.802;7.132;2023-02-01T02:11:40;101465.53;;;7.31;100.00
9419;BME280;4748;50.802;7.132;2023-02-01T02:14:07;101453.03;;;7.31;100.00
9419;BME280;4748;50.802;7.132;2023-02-01T02:19:55;101448.63;;;7.24;100.00
9419;BME280;4748;50.802;7.132;2023-02-01T02:25:27;101451.91;;;7.26;100.00
9419;BME280;4748;50.802;7.132;2023-02-01T02:28:24;101449.25;;;7.26;100.00
9419;BME280;4748;50.802;7.132;2023-02-01T02:33:58;101454.13;;;7.22;100.00
9419;BME280;4748;50.802;7.132;2023-02-01T02:39:34;101443.81;;;7.19;100.00
9419;BME280;4748;50.802;7.132;2023-02-01T02:45:09;101439.16;;;7.21;100.00
9419;BME280;4748;50.802;7.132;2023-02-01T02:54:19;101436.94;;;7.25;100.00
9419;BME280;4748;50.802;7.132;2023-02-01T02:57:07;101440.63;;;7.24;100.00
9419;BME280;4748;50.802;7.132;2023-02-01T02:59:53;101443.13;;;7.25;100.00
9419;BME280;4748;50.802;7.132;2023-02-01T03:02:40;101439.44;;;7.26;100.00
9419;BME280;4748;50.802;7.132;2023-02-01T03:05:24;101435.41;;;7.30;100.00
9419;BME280;4748;50.802;7.132;2023-02-01T03:07:54;101423.28;;;7.28;100.00
9419;BME280;4748;50.802;7.132;2023-02-01T03:12:49;101420.91;;;7.33;100.00
9419;BME280;4748;50.802;7.132;2023-02-01T03:15:24;101424.75;;;7.30;100.00
9419;BME280;4748;50.802;7.132;2023-02-01T03:17:54;101409.97;;;7.28;100.00
9419;BME280;4748;50.802;7.132;2023-02-01T03:20:22;101419.78;;;7.27;100.00
9419;BME280;4748;50.802;7.132;2023-02-01T03:22:48;101411.25;;;7.32;100.00
9419;BME280;4748;50.802;7.132;2023-02-01T03:25:25;101402.28;;;7.33;100.00
9419;BME280;4748;50.802;7.132;2023-02-01T03:27:57;101415.41;;;7.34;100.00
9419;BME280;4748;50.802;7.132;2023-02-01T03:30:31;101415.28;;;7.28;100.00
9419;BME280;4748;50.802;7.132;2023-02-01T03:33:03;101409.25;;;7.34;100.00
9419;BME280;4748;50.802;7.132;2023-02-01T03:38:37;101423.94;;;7.30;100.00
9419;BME280;4748;50.802;7.132;2023-02-01T03:44:03;101423.94;;;7.30;100.00
9419;BME280;4748;50.802;7.132;2023-02-01T03:46:37;101424.94;;;7.29;100.00
9419;BME280;4748;50.802;7.132;2023-02-01T03:49:09;101425.13;;;7.27;100.00
9419;BME280;4748;50.802;7.132;2023-02-01T03:51:38;101421.81;;;7.25;100.00
9419;BME280;4748;50.802;7.132;2023-02-01T03:54:06;101422.44;;;7.27;100.00
9419;BME280;4748;50.802;7.132;2023-02-01T03:56:36;101422.81;;;7.24;100.00
9419;BME280;4748;50.802;7.132;2023-02-01T03:59:03;101414.00;;;7.24;100.00
9419;BME280;4748;50.802;7.132;2023-02-01T04:01:29;101414.81;;;7.24;100.00
9419;BME280;4748;50.802;7.132;2023-02-01T04:03:56;101410.69;;;7.22;100.00
9419;BME280;4748;50.802;7.132;2023-02-01T04:06:22;101407.75;;;7.17;100.00
9419;BME280;4748;50.802;7.132;2023-02-01T04:08:48;101407.25;;;7.13;100.00
9419;BME280;4748;50.802;7.132;2023-02-01T04:11:13;101406.13;;;7.08;100.00
9419;BME280;4748;50.802;7.132;2023-02-01T04:13:39;101411.81;;;7.05;100.00
9419;BME280;4748;50.802;7.132;2023-02-01T04:16:05;101409.53;;;7.02;100.00
9419;BME280;4748;50.802;7.132;2023-02-01T04:18:30;101404.38;;;7.01;100.00
9419;BME280;4748;50.802;7.132;2023-02-01T04:20:55;101423.84;;;7.01;100.00
9419;BME280;4748;50.802;7.132;2023-02-01T04:23:21;101409.34;;;7.04;100.00
9419;BME280;4748;50.802;7.132;2023-02-01T04:25:46;101409.81;;;7.07;100.00
9419;BME280;4748;50.802;7.132;2023-02-01T04:28:11;101409.66;;;7.09;100.00
9419;BME280;4748;50.802;7.132;2023-02-01T04:30:37;101425.44;;;7.10;100.00
9419;BME280;4748;50.802;7.132;2023-02-01T04:33:02;101417.09;;;7.13;100.00
9419;BME280;4748;50.802;7.132;2023-02-01T04:35:31;101414.44;;;7.13;100.00
9419;BME280;4748;50.802;7.132;2023-02-01T04:37:56;101411.59;;;7.14;100.00
9419;BME280;4748;50.802;7.132;2023-02-01T04:40:22;101417.72;;;7.15;100.00
9419;BME280;4748;50.802;7.132;2023-02-01T04:42:47;101410.59;;;7.15;100.00
9419;BME280;4748;50.802;7.132;2023-02-01T04:45:12;101403.25;;;7.17;100.00
9419;BME280;4748;50.802;7.132;2023-02-01T04:47:38;101410.59;;;7.15;100.00
9419;BME280;4748;50.802;7.132;2023-02-01T04:50:04;101411.22;;;7.17;100.00
9419;BME280;4748;50.802;7.132;2023-02-01T04:52:31;101414.19;;;7.22;100.00
9419;BME280;4748;50.802;7.132;2023-02-01T04:54:56;101420.03;;;7.18;100.00
9419;BME280;4748;50.802;7.132;2023-02-01T04:57:24;101408.38;;;7.19;100.00
9419;BME280;4748;50.802;7.132;2023-02-01T04:59:49;101419.38;;;7.16;100.00
9419;BME280;4748;50.802;7.132;2023-02-01T05:02:14;101397.81;;;7.11;100.00
9419;BME280;4748;50.802;7.132;2023-02-01T05:04:40;101385.88;;;7.07;100.00
9419;BME280;4748;50.802;7.132;2023-02-01T05:07:05;101386.09;;;6.98;100.00
9419;BME280;4748;50.802;7.132;2023-02-01T05:09:30;101383.41;;;6.83;100.00
9419;BME280;4748;50.802;7.132;2023-02-01T05:11:56;101378.06;;;6.83;100.00
9419;BME280;4748;50.802;7.132;2023-02-01T05:14:40;101370.50;;;6.72;100.00
9419;BME280;4748;50.802;7.132;2023-02-01T05:17:05;101386.00;;;6.69;100.00
9419;BME280;4748;50.802;7.132;2023-02-01T05:19:30;101383.53;;;6.67;100.00
9419;BME280;4748;50.802;7.132;2023-02-01T05:21:56;101384.50;;;6.66;100.00
9419;BME280;4748;50.802;7.132;2023-02-01T05:24:21;101392.84;;;6.63;100.00
9419;BME280;4748;50.802;7.132;2023-02-01T05:26:48;101393.38;;;6.59;100.00
9419;BME280;4748;50.802;7.132;2023-02-01T05:29:14;101410.69;;;6.55;100.00
9419;BME280;4748;50.802;7.132;2023-02-01T05:31:39;101406.53;;;6.53;100.00
9419;BME280;4748;50.802;7.132;2023-02-01T05:34:06;101410.06;;;6.53;100.00
9419;BME280;4748;50.802;7.132;2023-02-01T05:36:31;101410.50;;;6.57;100.00
9419;BME280;4748;50.802;7.132;2023-02-01T05:38:57;101413.53;;;6.54;100.00
9419;BME280;4748;50.802;7.132;2023-02-01T05:41:22;101403.72;;;6.54;100.00
9419;BME280;4748;50.802;7.132;2023-02-01T05:43:48;101404.06;;;6.51;100.00
9419;BME280;4748;50.802;7.132;2023-02-01T05:46:13;101404.91;;;6.52;100.00
9419;BME280;4748;50.802;7.132;2023-02-01T05:48:39;101412.22;;;6.50;100.00
9419;BME280;4748;50.802;7.132;2023-02-01T05:51:05;101412.22;;;6.50;100.00
9419;BME280;4748;50.802;7.132;2023-02-01T05:53:30;101411.75;;;6.46;100.00
9419;BME280;4748;50.802;7.132;2023-02-01T05:55:55;101410.91;;;6.46;100.00
9419;BME280;4748;50.802;7.132;2023-02-01T05:58:21;101402.31;;;6.36;100.00
9419;BME280;4748;50.802;7.132;2023-02-01T06:00:46;101398.38;;;6.32;100.00
9419;BME280;4748;50.802;7.132;2023-02-01T06:03:12;101394.69;;;6.33;100.00
9419;BME280;4748;50.802;7.132;2023-02-01T06:05:37;101410.47;;;6.34;100.00
9419;BME280;4748;50.802;7.132;2023-02-01T06:08:02;101410.28;;;6.36;100.00
9419;BME280;4748;50.802;7.132;2023-02-01T06:10:28;101418.28;;;6.36;100.00
9419;BME280;4748;50.802;7.132;2023-02-01T06:12:53;101417.09;;;6.38;100.00
9419;BME280;4748;50.802;7.132;2023-02-01T06:15:18;101414.63;;;6.37;100.00
9419;BME280;4748;50.802;7.132;2023-02-01T06:17:45;101410.97;;;6.38;100.00
9419;BME280;4748;50.802;7.132;2023-02-01T06:20:12;101423.72;;;6.42;100.00
9419;BME280;4748;50.802;7.132;2023-02-01T06:22:38;101409.63;;;6.42;100.00
9419;BME280;4748;50.802;7.132;2023-02-01T06:25:05;101403.09;;;6.44;100.00
9419;BME280;4748;50.802;7.132;2023-02-01T06:27:31;101395.47;;;6.41;100.00
9419;BME280;4748;50.802;7.132;2023-02-01T06:29:56;101393.97;;;6.39;100.00
9419;BME280;4748;50.802;7.132;2023-02-01T06:32:22;101402.31;;;6.36;100.00
9419;BME280;4748;50.802;7.132;2023-02-01T06:34:48;101407.97;;;6.33;100.00
9419;BME280;4748;50.802;7.132;2023-02-01T06:37:14;101403.34;;;6.35;100.00
9419;BME280;4748;50.802;7.132;2023-02-01T06:39:39;101414.63;;;6.37;100.00
9419;BME280;4748;50.802;7.132;2023-02-01T06:42:05;101412.78;;;6.37;100.00
9419;BME280;4748;50.802;7.132;2023-02-01T06:44:30;101412.44;;;6.40;100.00
9419;BME280;4748;50.802;7.132;2023-02-01T06:46:56;101403.97;;;6.37;100.00
9419;BME280;4748;50.802;7.132;2023-02-01T06:49:21;101417.91;;;6.39;100.00
9419;BME280;4748;50.802;7.132;2023-02-01T06:51:47;101421.59;;;6.38;100.00
9419;BME280;4748;50.802;7.132;2023-02-01T06:54:12;101423.22;;;6.39;100.00
9419;BME280;4748;50.802;7.132;2023-02-01T06:56:38;101434.91;;;6.38;100.00
9419;BME280;4748;50.802;7.132;2023-02-01T06:59:07;101429.22;;;6.41;100.00
9419;BME280;4748;50.802;7.132;2023-02-01T07:01:33;101431.22;;;6.39;100.00
9419;BME280;4748;50.802;7.132;2023-02-01T07:03:58;101433.38;;;6.43;100.00
9419;BME280;4748;50.802;7.132;2023-02-01T07:06:24;101435.84;;;6.45;100.00
9419;BME280;4748;50.802;7.132;2023-02-01T07:08:49;101435.84;;;6.45;100.00
9419;BME280;4748;50.802;7.132;2023-02-01T07:11:17;101433.19;;;6.45;100.00
9419;BME280;4748;50.802;7.132;2023-02-01T07:13:43;101431.34;;;6.45;100.00
9419;BME280;4748;50.802;7.132;2023-02-01T07:16:16;101428.16;;;6.50;100.00
9419;BME280;4748;50.802;7.132;2023-02-01T07:18:42;101426.50;;;6.49;100.00
9419;BME280;4748;50.802;7.132;2023-02-01T07:21:07;101428.84;;;6.52;100.00
9419;BME280;4748;50.802;7.132;2023-02-01T07:23:33;101434.81;;;6.54;100.00
9419;BME280;4748;50.802;7.132;2023-02-01T07:26:01;101439.94;;;6.55;100.00
9419;BME280;4748;50.802;7.132;2023-02-01T07:28:29;101447.75;;;6.57;100.00
9419;BME280;4748;50.802;7.132;2023-02-01T07:31:04;101452.25;;;6.56;100.00
9419;BME280;4748;50.802;7.132;2023-02-01T07:33:30;101461.88;;;6.57;100.00
9419;BME280;4748;50.802;7.132;2023-02-01T07:35:55;101469.53;;;6.60;100.00
9419;BME280;4748;50.802;7.132;2023-02-01T07:38:21;101472.81;;;6.62;100.00
9419;BME280;4748;50.802;7.132;2023-02-01T07:40:48;101475.66;;;6.60;100.00
9419;BME280;4748;50.802;7.132;2023-02-01T07:43:14;101478.44;;;6.67;100.00
9419;BME280;4748;50.802;7.132;2023-02-01T07:45:39;101480.09;;;6.68;100.00
9419;BME280;4748;50.802;7.132;2023-02-01T07:48:04;101468.28;;;6.70;100.00
9419;BME280;4748;50.802;7.132;2023-02-01T07:50:30;101467.28;;;6.71;100.00
9419;BME280;4748;50.802;7.132;2023-02-01T07:53:01;101472.09;;;6.76;100.00
9419;BME280;4748;50.802;7.132;2023-02-01T07:55:26;101468.91;;;6.80;100.00
9419;BME280;4748;50.802;7.132;2023-02-01T07:57:52;101464.38;;;6.81;100.00
9419;BME280;4748;50.802;7.132;2023-02-01T08:00:18;101475.53;;;6.84;100.00
9419;BME280;4748;50.802;7.132;2023-02-01T08:03:04;101477.84;;;6.87;100.00
9419;BME280;4748;50.802;7.132;2023-02-01T08:05:29;101473.16;;;6.89;100.00
9419;BME280;4748;50.802;7.132;2023-02-01T08:07:55;101474.47;;;6.93;100.00
9419;BME280;4748;50.802;7.132;2023-02-01T08:10:20;101499.06;;;6.95;100.00
9419;BME280;4748;50.802;7.132;2023-02-01T08:12:46;101482.63;;;6.92;100.00
9419;BME280;4748;50.802;7.132;2023-02-01T08:15:17;101492.38;;;6.99;100.00
9419;BME280;4748;50.802;7.132;2023-02-01T08:17:50;101491.03;;;7.03;100.00
9419;BME280;4748;50.802;7.132;2023-02-01T08:20:16;101484.41;;;6.99;100.00
9419;BME280;4748;50.802;7.132;2023-02-01T08:22:42;101483.88;;;7.04;100.00
9419;BME280;4748;50.802;7.132;2023-02-01T08:25:08;101479.91;;;7.00;100.00
9419;BME280;4748;50.802;7.132;2023-02-01T08:27:33;101489.19;;;7.04;100.00
9419;BME280;4748;50.802;7.132;2023-02-01T08:29:59;101489.84;;;7.06;100.00
9419;BME280;4748;50.802;7.132;2023-02-01T08:32:25;101495.19;;;7.06;100.00
9419;BME280;4748;50.802;7.132;2023-02-01T08:34:51;101492.16;;;7.09;100.00
9419;BME280;4748;50.802;7.132;2023-02-01T08:37:16;101503.28;;;7.12;100.00
9419;BME280;4748;50.802;7.132;2023-02-01T08:39:42;101497.41;;;7.16;100.00
9419;BME280;4748;50.802;7.132;2023-02-01T08:42:09;101494.56;;;7.18;100.00
9419;BME280;4748;50.802;7.132;2023-02-01T08:44:53;101501.09;;;7.15;100.00
9419;BME280;4748;50.802;7.132;2023-02-01T08:47:19;101505.53;;;7.23;100.00
9419;BME280;4748;50.802;7.132;2023-02-01T08:49:44;101504.53;;;7.24;100.00
9419;BME280;4748;50.802;7.132;2023-02-01T08:52:09;101510.50;;;7.26;100.00
9419;BME280;4748;50.802;7.132;2023-02-01T08:54:34;101514.84;;;7.27;100.00
9419;BME280;4748;50.802;7.132;2023-02-01T08:57:00;101518.44;;;7.34;100.00
9419;BME280;4748;50.802;7.132;2023-02-01T08:59:25;101513.94;;;7.34;100.00
9419;BME280;4748;50.802;7.132;2023-02-01T09:01:50;101519.72;;;7.38;100.00
9419;BME280;4748;50.802;7.132;2023-02-01T09:04:16;101515.06;;;7.40;100.00
9419;BME280;4748;50.802;7.132;2023-02-01T09:06:41;101543.28;;;7.49;100.00
9419;BME280;4748;50.802;7.132;2023-02-01T09:09:06;101528.59;;;7.53;100.00
9419;BME280;4748;50.802;7.132;2023-02-01T09:11:32;101516.69;;;7.63;100.00
9419;BME280;4748;50.802;7.132;2023-02-01T09:13:57;101522.69;;;7.65;100.00
9419;BME280;4748;50.802;7.132;2023-02-01T09:16:23;101520.19;;;7.63;100.00
9419;BME280;4748;50.802;7.132;2023-02-01T09:18:48;101511.00;;;7.66;100.00
9419;BME280;4748;50.802;7.132;2023-02-01T09:21:13;101502.31;;;7.72;100.00
9419;BME280;4748;50.802;7.132;2023-02-01T09:23:39;101506.34;;;7.82;100.00
9419;BME280;4748;50.802;7.132;2023-02-01T09:26:05;101502.78;;;7.90;100.00
9419;BME280;4748;50.802;7.132;2023-02-01T09:28:30;101516.03;;;7.98;100.00
9419;BME280;4748;50.802;7.132;2023-02-01T09:31:00;101511.91;;;7.95;100.00
9419;BME280;4748;50.802;7.132;2023-02-01T09:33:27;101509.41;;;7.94;100.00
9419;BME280;4748;50.802;7.132;2023-02-01T09:36:00;101511.72;;;7.97;100.00
9419;BME280;4748;50.802;7.132;2023-02-01T09:38:26;101508.22;;;7.96;100.00
9419;BME280;4748;50.802;7.132;2023-02-01T09:40:53;101507.56;;;7.94;100.00
9419;BME280;4748;50.802;7.132;2023-02-01T09:43:41;101514.63;;;7.87;100.00
9419;BME280;4748;50.802;7.132;2023-02-01T09:46:24;101511.97;;;7.87;100.00
9419;BME280;4748;50.802;7.132;2023-02-01T09:48:56;101513.56;;;7.96;100.00
9419;BME280;4748;50.802;7.132;2023-02-01T09:51:52;101519.72;;;7.97;100.00
9419;BME280;4748;50.802;7.132;2023-02-01T09:54:27;101524.50;;;8.01;100.00
9419;BME280;4748;50.802;7.132;2023-02-01T09:59:38;101513.09;;;8.07;100.00
9419;BME280;4748;50.802;7.132;2023-02-01T10:02:14;101511.38;;;8.14;100.00
9419;BME280;4748;50.802;7.132;2023-02-01T10:04:40;101515.72;;;8.15;100.00
9419;BME280;4748;50.802;7.132;2023-02-01T10:10:15;101505.09;;;8.07;100.00
9419;BME280;4748;50.802;7.132;2023-02-01T10:18:44;101493.25;;;8.10;100.00
9419;BME280;4748;50.802;7.132;2023-02-01T10:21:40;101488.41;;;8.13;100.00
9419;BME280;4748;50.802;7.132;2023-02-01T10:27:08;101492.63;;;8.22;100.00
9419;BME280;4748;50.802;7.132;2023-02-01T10:29:39;101495.31;;;8.36;100.00
9419;BME280;4748;50.802;7.132;2023-02-01T10:32:14;101500.75;;;8.43;100.00
9419;BME280;4748;50.802;7.132;2023-02-01T10:34:39;101486.00;;;8.47;100.00
9419;BME280;4748;50.802;7.132;2023-02-01T10:37:23;101489.19;;;8.57;100.00
9419;BME280;4748;50.802;7.132;2023-02-01T10:39:52;101487.63;;;8.62;100.00
9419;BME280;4748;50.802;7.132;2023-02-01T10:42:24;101488.28;;;8.64;100.00
9419;BME280;4748;50.802;7.132;2023-02-01T10:44:50;101480.47;;;8.63;100.00
9419;BME280;4748;50.802;7.132;2023-02-01T10:47:16;101493.69;;;8.70;100.00
9419;BME280;4748;50.802;7.132;2023-02-01T10:49:49;101490.66;;;8.73;100.00
9419;BME280;4748;50.802;7.132;2023-02-01T10:52:29;101487.88;;;9.02;100.00
9419;BME280;4748;50.802;7.132;2023-02-01T10:58:15;101478.09;;;9.09;100.00
9419;BME280;4748;50.802;7.132;2023-02-01T11:00:44;101467.94;;;9.19;100.00
9419;BME280;4748;50.802;7.132;2023-02-01T11:03:21;101465.91;;;9.21;100.00
9419;BME280;4748;50.802;7.132;2023-02-01T11:05:55;101464.72;;;9.23;100.00
9419;BME280;4748;50.802;7.132;2023-02-01T11:08:20;101455.94;;;9.29;100.00
9419;BME280;4748;50.802;7.132;2023-02-01T11:10:46;101452.66;;;9.55;100.00
9419;BME280;4748;50.802;7.132;2023-02-01T11:13:17;101465.09;;;9.68;100.00
9419;BME280;4748;50.802;7.132;2023-02-01T11:15:44;101463.47;;;9.74;100.00
9419;BME280;4748;50.802;7.132;2023-02-01T11:18:18;101461.16;;;9.92;100.00
9419;BME280;4748;50.802;7.132;2023-02-01T11:20:46;101461.97;;;9.92;100.00
9419;BME280;4748;50.802;7.132;2023-02-01T11:23:20;101466.22;;;9.80;100.00
9419;BME280;4748;50.802;7.132;2023-02-01T11:25:54;101464.19;;;9.62;100.00
9419;BME280;4748;50.802;7.132;2023-02-01T11:28:23;101471.69;;;9.45;100.00
9419;BME280;4748;50.802;7.132;2023-02-01T11:30:51;101473.34;;;9.46;100.00
9419;BME280;4748;50.802;7.132;2023-02-01T11:33:20;101468.31;;;9.37;100.00
9419;BME280;4748;50.802;7.132;2023-02-01T11:35:51;101464.13;;;9.28;100.00
9419;BME280;4748;50.802;7.132;2023-02-01T11:38:31;101456.16;;;9.34;100.00
9419;BME280;4748;50.802;7.132;2023-02-01T11:41:27;101436.19;;;9.30;100.00
9419;BME280;4748;50.802;7.132;2023-02-01T11:43:57;101450.13;;;9.26;100.00
9419;BME280;4748;50.802;7.132;2023-02-01T11:46:33;101439.50;;;9.32;100.00
9419;BME280;4748;50.802;7.132;2023-02-01T11:49:21;101443.47;;;9.36;100.00
9419;BME280;4748;50.802;7.132;2023-02-01T11:55:32;101434.47;;;9.44;100.00
9419;BME280;4748;50.802;7.132;2023-02-01T11:57:46;101426.59;;;9.36;100.00
9419;BME280;4748;50.802;7.132;2023-02-01T12:00:40;101438.03;;;9.30;100.00
9419;BME280;4748;50.802;7.132;2023-02-01T12:06:22;101419.09;;;9.04;100.00
9419;BME280;4748;50.802;7.132;2023-02-01T12:09:15;101418.59;;;8.94;100.00
9419;BME280;4748;50.802;7.132;2023-02-01T12:25:25;101402.28;;;9.04;100.00
9419;BME280;4748;50.802;7.132;2023-02-01T12:31:07;101403.78;;;9.13;100.00
9419;BME280;4748;50.802;7.132;2023-02-01T12:36:50;101383.69;;;9.16;100.00
9419;BME280;4748;50.802;7.132;2023-02-01T12:39:46;101407.16;;;9.21;100.00
9419;BME280;4748;50.802;7.132;2023-02-01T12:42:24;101393.59;;;9.22;100.00
9419;BME280;4748;50.802;7.132;2023-02-01T12:45:10;101405.94;;;9.23;100.00
9419;BME280;4748;50.802;7.132;2023-02-01T12:47:45;101383.78;;;9.29;100.00
9419;BME280;4748;50.802;7.132;2023-02-01T12:50:40;101395.63;;;9.20;100.00
9419;BME280;4748;50.802;7.132;2023-02-01T12:53:14;101395.19;;;9.17;100.00
9419;BME280;4748;50.802;7.132;2023-02-01T12:55:49;101386.16;;;9.18;100.00
9419;BME280;4748;50.802;7.132;2023-02-01T13:01:02;101372.53;;;9.34;100.00
9419;BME280;4748;50.802;7.132;2023-02-01T13:06:40;101373.41;;;9.41;100.00
9419;BME280;4748;50.802;7.132;2023-02-01T13:09:23;101362.91;;;9.39;100.00
9419;BME280;4748;50.802;7.132;2023-02-01T13:11:51;101368.19;;;9.33;100.00
9419;BME280;4748;50.802;7.132;2023-02-01T13:14:35;101351.53;;;9.31;100.00
9419;BME280;4748;50.802;7.132;2023-02-01T13:17:05;101346.97;;;9.25;100.00
9419;BME280;4748;50.802;7.132;2023-02-01T13:19:49;101350.41;;;9.19;100.00
9419;BME280;4748;50.802;7.132;2023-02-01T13:22:25;101342.16;;;9.14;100.00
9419;BME280;4748;50.802;7.132;2023-02-01T13:24:54;101343.44;;;9.18;100.00
9419;BME280;4748;50.802;7.132;2023-02-01T13:27:21;101339.28;;;9.15;100.00
9419;BME280;4748;50.802;7.132;2023-02-01T13:29:55;101342.53;;;9.11;100.00
9419;BME280;4748;50.802;7.132;2023-02-01T13:41:28;101333.38;;;8.99;100.00
9419;BME280;4748;50.802;7.132;2023-02-01T13:43:59;101322.28;;;8.96;100.00
9419;BME280;4748;50.802;7.132;2023-02-01T13:46:25;101337.50;;;8.95;100.00
9419;BME280;4748;50.802;7.132;2023-02-01T13:48:54;101321.22;;;8.90;100.00
9419;BME280;4748;50.802;7.132;2023-02-01T13:51:41;101319.31;;;8.84;100.00
9419;BME280;4748;50.802;7.132;2023-02-01T13:54:25;101314.78;;;8.85;100.00
9419;BME280;4748;50.802;7.132;2023-02-01T13:56:52;101320.97;;;8.85;100.00
9419;BME280;4748;50.802;7.132;2023-02-01T14:05:01;101319.31;;;8.84;100.00
9419;BME280;4748;50.802;7.132;2023-02-01T14:07:26;101313.97;;;8.84;100.00
9419;BME280;4748;50.802;7.132;2023-02-01T14:09:51;101321.41;;;8.89;100.00
9419;BME280;4748;50.802;7.132;2023-02-01T14:12:44;101314.59;;;8.86;100.00
9419;BME280;4748;50.802;7.132;2023-02-01T14:15:19;101311.34;;;8.91;100.00
9419;BME280;4748;50.802;7.132;2023-02-01T14:17:46;101326.94;;;8.87;100.00
9419;BME280;4748;50.802;7.132;2023-02-01T14:20:43;101313.59;;;8.87;100.00
9419;BME280;4748;50.802;7.132;2023-02-01T14:23:16;101317.91;;;8.88;100.00
9419;BME280;4748;50.802;7.132;2023-02-01T14:25:43;101318.81;;;8.95;100.00
9419;BME280;4748;50.802;7.132;2023-02-01T14:28:23;101319.22;;;8.99;100.00
9419;BME280;4748;50.802;7.132;2023-02-01T14:30:50;101318.41;;;8.98;100.00
9419;BME280;4748;50.802;7.132;2023-02-01T14:33:24;101321.13;;;9.05;100.00
9419;BME280;4748;50.802;7.132;2023-02-01T14:36:10;101325.44;;;9.06;100.00
9419;BME280;4748;50.802;7.132;2023-02-01T14:38:38;101319.84;;;9.01;100.00
9419;BME280;4748;50.802;7.132;2023-02-01T14:41:24;101323.97;;;9.03;100.00
9419;BME280;4748;50.802;7.132;2023-02-01T14:47:25;101327.94;;;9.07;100.00
9419;BME280;4748;50.802;7.132;2023-02-01T14:52:47;101331.59;;;9.06;100.00
9419;BME280;4748;50.802;7.132;2023-02-01T14:57:55;101333.66;;;9.04;100.00
9419;BME280;4748;50.802;7.132;2023-02-01T15:00:28;101335.13;;;9.07;100.00
9419;BME280;4748;50.802;7.132;2023-02-01T15:03:11;101340.66;;;9.05;100.00
9419;BME280;4748;50.802;7.132;2023-02-01T15:05:40;101338.41;;;9.09;100.00
9419;BME280;4748;50.802;7.132;2023-02-01T15:08:17;101342.28;;;9.06;100.00
9419;BME280;4748;50.802;7.132;2023-02-01T15:10:46;101345.81;;;9.07;100.00
9419;BME280;4748;50.802;7.132;2023-02-01T15:13:22;101338.41;;;9.09;100.00
9419;BME280;4748;50.802;7.132;2023-02-01T15:16:14;101335.94;;;9.07;100.00